sensor_id;sensor_type;location;lat;lon;timestamp;temperature;humidity
25550;DHT22;13444;50.562;7.262;2023-03-21T00:00:03;10.00;99.90
25550;DHT22;13444;50.562;7.262;2023-03-21T00:02:28;10.00;99.90
25550;DHT22;13444;50.562;7.262;2023-03-21T00:04:54;10.00;99.90
25550;DHT22;13444;50.562;7.262;2023-03-21T00:07:19;10.00;99.90
25550;DHT22;13444;50.562;7.262;2023-03-21T00:09:45;10.00;99.90
25550;DHT22;13444;50.562;7.262;2023-03-21T00:12:10;9.90;99.90
25550;DHT22;13444;50.562;7.262;2023-03-21T00:14:37;9.90;99.90
25550;DHT22;13444;50.562;7.262;2023-03-21T00:17:03;9.90;99.90
25550;DHT22;13444;50.562;7.262;2023-03-21T00:19:29;9.90;99.90
25550;DHT22;13444;50.562;7.262;2023-03-21T00:21:55;9.90;99.90
25550;DHT22;13444;50.562;7.262;2023-03-21T00:24:21;9.90;99.90
25550;DHT22;13444;50.562;7.262;2023-03-21T00:26:48;9.80;99.90
25550;DHT22;13444;50.562;7.262;2023-03-21T00:29:14;9.80;99.90
25550;DHT22;13444;50.562;7.262;2023-03-21T00:31:39;9.80;99.90
25550;DHT22;13444;50.562;7.262;2023-03-21T00:34:05;9.80;99.90
25550;DHT22;13444;50.562;7.262;2023-03-21T00:36:30;9.80;99.90
25550;DHT22;13444;50.562;7.262;2023-03-21T00:38:56;9.80;99.90
25550;DHT22;13444;50.562;7.262;2023-03-21T00:41:22;9.80;99.90
25550;DHT22;13444;50.562;7.262;2023-03-21T00:43:47;9.80;99.90
25550;DHT22;13444;50.562;7.262;2023-03-21T00:46:13;9.80;99.90
25550;DHT22;13444;50.562;7.262;2023-03-21T00:48:38;9.80;99.90
25550;DHT22;13444;50.562;7.262;2023-03-21T00:51:16;9.80;99.90
25550;DHT22;13444;50.562;7.262;2023-03-21T00:53:45;9.80;99.90
25550;DHT22;13444;50.562;7.262;2023-03-21T00:56:11;9.80;99.90
25550;DHT22;13444;50.562;7.262;2023-03-21T00:58:37;9.80;99.90
25550;DHT22;13444;50.562;7.262;2023-03-21T01:01:03;9.80;99.90
25550;DHT22;13444;50.562;7.262;2023-03-21T01:03:32;9.80;99.90
25550;DHT22;13444;50.562;7.262;2023-03-21T01:05:58;9.80;99.90
25550;DHT22;13444;50.562;7.262;2023-03-21T01:08:33;9.80;99.90
25550;DHT22;13444;50.562;7.262;2023-03-21T01:11:03;9.80;99.90
25550;DHT22;13444;50.562;7.262;2023-03-21T01:13:30;9.80;99.90
25550;DHT22;13444;50.562;7.262;2023-03-21T01:15:56;9.80;99.90
25550;DHT22;13444;50.562;7.262;2023-03-21T01:18:26;9.70;99.90
25550;DHT22;13444;50.562;7.262;2023-03-21T01:20:53;9.80;99.90
25550;DHT22;13444;50.562;7.262;2023-03-21T01:23:19;9.80;99.90
25550;DHT22;13444;50.562;7.262;2023-03-21T01:25:47;9.70;99.90
25550;DHT22;13444;50.562;7.262;2023-03-21T01:28:13;9.80;99.90
25550;DHT22;13444;50.562;7.262;2023-03-21T01:30:38;9.80;99.90
25550;DHT22;13444;50.562;7.262;2023-03-21T01:33:08;9.70;99.90
25550;DHT22;13444;50.562;7.262;2023-03-21T01:35:35;9.80;99.90
25550;DHT22;13444;50.562;7.262;2023-03-21T01:38:01;9.80;99.90
25550;DHT22;13444;50.562;7.262;2023-03-21T01:40:27;9.80;99.90
25550;DHT22;13444;50.562;7.262;2023-03-21T01:42:53;9.80;99.90
25550;DHT22;13444;50.562;7.262;2023-03-21T01:48:22;9.90;99.90
25550;DHT22;13444;50.562;7.262;2023-03-21T01:50:49;9.80;99.90
25550;DHT22;13444;50.562;7.262;2023-03-21T01:53:15;9.90;99.90
25550;DHT22;13444;50.562;7.262;2023-03-21T01:55:44;9.90;99.90
25550;DHT22;13444;50.562;7.262;2023-03-21T01:58:12;9.90;99.90
25550;DHT22;13444;50.562;7.262;2023-03-21T02:00:38;9.90;99.90
25550;DHT22;13444;50.562;7.262;2023-03-21T02:03:07;9.90;99.90
25550;DHT22;13444;50.562;7.262;2023-03-21T02:06:10;9.90;99.90
25550;DHT22;13444;50.562;7.262;2023-03-21T02:08:37;9.90;99.90
25550;DHT22;13444;50.562;7.262;2023-03-21T02:11:04;9.90;99.90
25550;DHT22;13444;50.562;7.262;2023-03-21T02:13:30;9.90;99.90
25550;DHT22;13444;50.562;7.262;2023-03-21T02:16:05;9.80;99.90
25550;DHT22;13444;50.562;7.262;2023-03-21T02:19:04;9.80;99.90
25550;DHT22;13444;50.562;7.262;2023-03-21T02:22:10;9.80;99.90
25550;DHT22;13444;50.562;7.262;2023-03-21T02:27:33;9.80;99.90
25550;DHT22;13444;50.562;7.262;2023-03-21T02:33:00;9.70;99.90
25550;DHT22;13444;50.562;7.262;2023-03-21T02:36:11;9.70;99.90
25550;DHT22;13444;50.562;7.262;2023-03-21T02:42:02;9.70;99.90
25550;DHT22;13444;50.562;7.262;2023-03-21T02:44:46;9.60;99.90
25550;DHT22;13444;50.562;7.262;2023-03-21T02:47:21;9.60;99.90
25550;DHT22;13444;50.562;7.262;2023-03-21T02:50:06;9.60;99.90
25550;DHT22;13444;50.562;7.262;2023-03-21T02:52:35;9.60;99.90
25550;DHT22;13444;50.562;7.262;2023-03-21T02:55:01;9.50;99.90
25550;DHT22;13444;50.562;7.262;2023-03-21T02:57:29;9.50;99.90
25550;DHT22;13444;50.562;7.262;2023-03-21T02:59:55;9.50;99.90
25550;DHT22;13444;50.562;7.262;2023-03-21T03:02:27;9.50;99.90
25550;DHT22;13444;50.562;7.262;2023-03-21T03:04:53;9.50;99.90
25550;DHT22;13444;50.562;7.262;2023-03-21T03:07:51;9.50;99.90
25550;DHT22;13444;50.562;7.262;2023-03-21T03:15:54;9.40;99.90
25550;DHT22;13444;50.562;7.262;2023-03-21T03:18:41;9.40;99.90
25550;DHT22;13444;50.562;7.262;2023-03-21T03:21:38;9.40;99.90
25550;DHT22;13444;50.562;7.262;2023-03-21T03:24:18;9.30;99.90
25550;DHT22;13444;50.562;7.262;2023-03-21T03:26:50;9.30;99.90
25550;DHT22;13444;50.562;7.262;2023-03-21T03:29:20;9.30;99.90
25550;DHT22;13444;50.562;7.262;2023-03-21T03:32:02;9.20;99.90
25550;DHT22;13444;50.562;7.262;2023-03-21T03:34:42;9.20;99.90
25550;DHT22;13444;50.562;7.262;2023-03-21T03:37:13;9.20;99.90
25550;DHT22;13444;50.562;7.262;2023-03-21T03:42:25;9.10;99.90
25550;DHT22;13444;50.562;7.262;2023-03-21T03:44:52;9.10;99.90
25550;DHT22;13444;50.562;7.262;2023-03-21T03:47:27;9.00;99.90
25550;DHT22;13444;50.562;7.262;2023-03-21T03:50:12;9.00;99.90
25550;DHT22;13444;50.562;7.262;2023-03-21T03:52:46;9.00;99.90
25550;DHT22;13444;50.562;7.262;2023-03-21T03:55:16;8.90;99.90
25550;DHT22;13444;50.562;7.262;2023-03-21T03:57:43;8.90;99.90
25550;DHT22;13444;50.562;7.262;2023-03-21T04:00:11;8.80;99.90
25550;DHT22;13444;50.562;7.262;2023-03-21T04:02:43;8.80;99.90
25550;DHT22;13444;50.562;7.262;2023-03-21T04:05:10;8.80;99.90
25550;DHT22;13444;50.562;7.262;2023-03-21T04:07:36;8.80;99.90
25550;DHT22;13444;50.562;7.262;2023-03-21T04:10:02;8.80;99.90
25550;DHT22;13444;50.562;7.262;2023-03-21T04:12:29;8.70;99.90
25550;DHT22;13444;50.562;7.262;2023-03-21T04:14:54;8.70;99.90
25550;DHT22;13444;50.562;7.262;2023-03-21T04:17:20;8.70;99.90
25550;DHT22;13444;50.562;7.262;2023-03-21T04:19:45;8.60;99.90
25550;DHT22;13444;50.562;7.262;2023-03-21T04:22:11;8.60;99.90
25550;DHT22;13444;50.562;7.262;2023-03-21T04:24:40;8.60;99.90
25550;DHT22;13444;50.562;7.262;2023-03-21T04:27:06;8.50;99.90
25550;DHT22;13444;50.562;7.262;2023-03-21T04:29:32;8.50;99.90
25550;DHT22;13444;50.562;7.262;2023-03-21T04:31:57;8.40;99.90
25550;DHT22;13444;50.562;7.262;2023-03-21T04:34:24;8.40;99.90
25550;DHT22;13444;50.562;7.262;2023-03-21T04:36:53;8.40;99.90
25550;DHT22;13444;50.562;7.262;2023-03-21T04:39:20;8.30;99.90
25550;DHT22;13444;50.562;7.262;2023-03-21T04:41:46;8.30;99.90
25550;DHT22;13444;50.562;7.262;2023-03-21T04:44:13;8.30;99.90
25550;DHT22;13444;50.562;7.262;2023-03-21T04:46:40;8.30;99.90
25550;DHT22;13444;50.562;7.262;2023-03-21T04:49:06;8.30;99.90
25550;DHT22;13444;50.562;7.262;2023-03-21T04:51:32;8.30;99.90
25550;DHT22;13444;50.562;7.262;2023-03-21T04:53:58;8.20;99.90
25550;DHT22;13444;50.562;7.262;2023-03-21T04:56:25;8.20;99.90
25550;DHT22;13444;50.562;7.262;2023-03-21T04:58:59;8.20;99.90
25550;DHT22;13444;50.562;7.262;2023-03-21T05:01:26;8.20;99.90
25550;DHT22;13444;50.562;7.262;2023-03-21T05:03:58;8.20;99.90
25550;DHT22;13444;50.562;7.262;2023-03-21T05:06:24;8.10;99.90
25550;DHT22;13444;50.562;7.262;2023-03-21T05:08:50;8.10;99.90
25550;DHT22;13444;50.562;7.262;2023-03-21T05:11:15;8.20;99.90
25550;DHT22;13444;50.562;7.262;2023-03-21T05:13:41;8.20;99.90
25550;DHT22;13444;50.562;7.262;2023-03-21T05:16:07;8.20;99.90
25550;DHT22;13444;50.562;7.262;2023-03-21T05:18:32;8.20;99.90
25550;DHT22;13444;50.562;7.262;2023-03-21T05:21:03;8.20;99.90
25550;DHT22;13444;50.562;7.262;2023-03-21T05:23:32;8.20;99.90
25550;DHT22;13444;50.562;7.262;2023-03-21T05:26:04;8.20;99.90
25550;DHT22;13444;50.562;7.262;2023-03-21T05:28:29;8.20;99.90
25550;DHT22;13444;50.562;7.262;2023-03-21T05:30:56;8.20;99.90
25550;DHT22;13444;50.562;7.262;2023-03-21T05:33:21;8.30;99.90
25550;DHT22;13444;50.562;7.262;2023-03-21T05:35:49;8.30;99.90
25550;DHT22;13444;50.562;7.262;2023-03-21T05:38:15;8.30;99.90
25550;DHT22;13444;50.562;7.262;2023-03-21T05:40:45;8.30;99.90
25550;DHT22;13444;50.562;7.262;2023-03-21T05:43:11;8.40;99.90
25550;DHT22;13444;50.562;7.262;2023-03-21T05:45:36;8.40;99.90
25550;DHT22;13444;50.562;7.262;2023-03-21T05:48:02;8.40;99.90
25550;DHT22;13444;50.562;7.262;2023-03-21T05:50:28;8.50;99.90
25550;DHT22;13444;50.562;7.262;2023-03-21T05:52:53;8.50;99.90
25550;DHT22;13444;50.562;7.262;2023-03-21T05:55:19;8.50;99.90
25550;DHT22;13444;50.562;7.262;2023-03-21T05:57:44;8.50;99.90
25550;DHT22;13444;50.562;7.262;2023-03-21T06:00:11;8.50;99.90
25550;DHT22;13444;50.562;7.262;2023-03-21T06:02:36;8.50;99.90
25550;DHT22;13444;50.562;7.262;2023-03-21T06:05:03;8.60;99.90
25550;DHT22;13444;50.562;7.262;2023-03-21T06:07:28;8.60;99.90
25550;DHT22;13444;50.562;7.262;2023-03-21T06:09:54;8.70;99.90
25550;DHT22;13444;50.562;7.262;2023-03-21T06:12:20;8.70;99.90
25550;DHT22;13444;50.562;7.262;2023-03-21T06:14:45;8.70;99.90
25550;DHT22;13444;50.562;7.262;2023-03-21T06:17:11;8.80;99.90
25550;DHT22;13444;50.562;7.262;2023-03-21T06:19:36;8.80;99.90
25550;DHT22;13444;50.562;7.262;2023-03-21T06:22:02;8.80;99.90
25550;DHT22;13444;50.562;7.262;2023-03-21T06:24:28;8.80;99.90
25550;DHT22;13444;50.562;7.262;2023-03-21T06:26:53;8.90;99.90
25550;DHT22;13444;50.562;7.262;2023-03-21T06:29:19;8.90;99.90
25550;DHT22;13444;50.562;7.262;2023-03-21T06:31:44;8.90;99.90
25550;DHT22;13444;50.562;7.262;2023-03-21T06:34:10;8.90;99.90
25550;DHT22;13444;50.562;7.262;2023-03-21T06:36:36;8.90;99.90
25550;DHT22;13444;50.562;7.262;2023-03-21T06:39:02;9.00;99.90
25550;DHT22;13444;50.562;7.262;2023-03-21T06:41:28;9.00;99.90
25550;DHT22;13444;50.562;7.262;2023-03-21T06:43:54;9.00;99.90
25550;DHT22;13444;50.562;7.262;2023-03-21T06:46:19;9.00;99.90
25550;DHT22;13444;50.562;7.262;2023-03-21T06:48:45;9.10;99.90
25550;DHT22;13444;50.562;7.262;2023-03-21T06:51:12;9.10;99.90
25550;DHT22;13444;50.562;7.262;2023-03-21T06:53:38;9.10;99.90
25550;DHT22;13444;50.562;7.262;2023-03-21T06:56:04;9.10;99.90
25550;DHT22;13444;50.562;7.262;2023-03-21T06:58:29;9.10;99.90
25550;DHT22;13444;50.562;7.262;2023-03-21T07:00:58;9.10;99.90
25550;DHT22;13444;50.562;7.262;2023-03-21T07:03:24;9.10;99.90
25550;DHT22;13444;50.562;7.262;2023-03-21T07:05:50;9.20;99.90
25550;DHT22;13444;50.562;7.262;2023-03-21T07:08:15;9.20;99.90
25550;DHT22;13444;50.562;7.262;2023-03-21T07:10:43;9.20;99.90
25550;DHT22;13444;50.562;7.262;2023-03-21T07:13:09;9.20;99.90
25550;DHT22;13444;50.562;7.262;2023-03-21T07:15:35;9.30;99.90
25550;DHT22;13444;50.562;7.262;2023-03-21T07:18:06;9.30;99.90
25550;DHT22;13444;50.562;7.262;2023-03-21T07:20:33;9.30;99.90
25550;DHT22;13444;50.562;7.262;2023-03-21T07:22:59;9.40;99.90
25550;DHT22;13444;50.562;7.262;2023-03-21T07:25:26;9.50;99.90
25550;DHT22;13444;50.562;7.262;2023-03-21T07:27:52;9.50;99.90
25550;DHT22;13444;50.562;7.262;2023-03-21T07:30:18;9.50;99.90
25550;DHT22;13444;50.562;7.262;2023-03-21T07:32:43;9.60;99.90
25550;DHT22;13444;50.562;7.262;2023-03-21T07:35:11;9.60;99.90
25550;DHT22;13444;50.562;7.262;2023-03-21T07:37:38;9.60;99.90
25550;DHT22;13444;50.562;7.262;2023-03-21T07:40:04;9.60;99.90
25550;DHT22;13444;50.562;7.262;2023-03-21T07:42:38;9.60;99.90
25550;DHT22;13444;50.562;7.262;2023-03-21T07:45:04;9.60;99.90
25550;DHT22;13444;50.562;7.262;2023-03-21T07:47:30;9.60;99.90
25550;DHT22;13444;50.562;7.262;2023-03-21T07:49:56;9.60;99.90
25550;DHT22;13444;50.562;7.262;2023-03-21T07:52:22;9.50;99.90
25550;DHT22;13444;50.562;7.262;2023-03-21T07:54:47;9.60;99.90
25550;DHT22;13444;50.562;7.262;2023-03-21T07:57:12;9.60;99.90
25550;DHT22;13444;50.562;7.262;2023-03-21T07:59:38;9.60;99.90
25550;DHT22;13444;50.562;7.262;2023-03-21T08:02:04;9.50;99.90
25550;DHT22;13444;50.562;7.262;2023-03-21T08:04:29;9.50;99.90
25550;DHT22;13444;50.562;7.262;2023-03-21T08:06:55;9.50;99.90
25550;DHT22;13444;50.562;7.262;2023-03-21T08:09:21;9.40;99.90
25550;DHT22;13444;50.562;7.262;2023-03-21T08:11:47;9.40;99.90
25550;DHT22;13444;50.562;7.262;2023-03-21T08:14:12;9.30;99.90
25550;DHT22;13444;50.562;7.262;2023-03-21T08:16:38;9.40;99.90
25550;DHT22;13444;50.562;7.262;2023-03-21T08:19:03;9.40;99.90
25550;DHT22;13444;50.562;7.262;2023-03-21T08:21:29;9.40;99.90
25550;DHT22;13444;50.562;7.262;2023-03-21T08:23:54;9.40;99.90
25550;DHT22;13444;50.562;7.262;2023-03-21T08:26:20;9.40;99.90
25550;DHT22;13444;50.562;7.262;2023-03-21T08:28:49;9.40;99.90
25550;DHT22;13444;50.562;7.262;2023-03-21T08:31:14;9.30;99.90
25550;DHT22;13444;50.562;7.262;2023-03-21T08:33:40;9.40;99.90
25550;DHT22;13444;50.562;7.262;2023-03-21T08:36:06;9.30;99.90
25550;DHT22;13444;50.562;7.262;2023-03-21T08:38:31;9.40;99.90
25550;DHT22;13444;50.562;7.262;2023-03-21T08:41:01;9.40;99.90
25550;DHT22;13444;50.562;7.262;2023-03-21T08:43:27;9.40;99.90
25550;DHT22;13444;50.562;7.262;2023-03-21T08:45:54;9.40;99.90
25550;DHT22;13444;50.562;7.262;2023-03-21T08:48:19;9.40;99.90
25550;DHT22;13444;50.562;7.262;2023-03-21T08:50:45;9.40;99.90
25550;DHT22;13444;50.562;7.262;2023-03-21T08:53:10;9.40;99.90
25550;DHT22;13444;50.562;7.262;2023-03-21T08:55:36;9.40;99.90
25550;DHT22;13444;50.562;7.262;2023-03-21T08:58:02;9.40;99.90
25550;DHT22;13444;50.562;7.262;2023-03-21T09:00:28;9.40;99.90
25550;DHT22;13444;50.562;7.262;2023-03-21T09:02:54;9.40;99.90
25550;DHT22;13444;50.562;7.262;2023-03-21T09:05:21;9.40;99.90
25550;DHT22;13444;50.562;7.262;2023-03-21T09:07:47;9.40;99.90
25550;DHT22;13444;50.562;7.262;2023-03-21T09:10:18;9.50;99.90
25550;DHT22;13444;50.562;7.262;2023-03-21T09:12:45;9.40;99.90
25550;DHT22;13444;50.562;7.262;2023-03-21T09:15:11;9.50;99.90
25550;DHT22;13444;50.562;7.262;2023-03-21T09:17:38;9.40;99.90
25550;DHT22;13444;50.562;7.262;2023-03-21T09:20:10;9.50;99.90
25550;DHT22;13444;50.562;7.262;2023-03-21T09:22:39;9.40;99.90
25550;DHT22;13444;50.562;7.262;2023-03-21T09:25:05;9.50;99.90
25550;DHT22;13444;50.562;7.262;2023-03-21T09:27:32;9.40;99.90
25550;DHT22;13444;50.562;7.262;2023-03-21T09:29:58;9.40;99.90
25550;DHT22;13444;50.562;7.262;2023-03-21T09:32:24;9.30;99.90
25550;DHT22;13444;50.562;7.262;2023-03-21T09:34:51;9.30;99.90
25550;DHT22;13444;50.562;7.262;2023-03-21T09:37:20;9.30;99.90
25550;DHT22;13444;50.562;7.262;2023-03-21T09:39:45;9.30;99.90
25550;DHT22;13444;50.562;7.262;2023-03-21T09:42:26;9.30;99.90
25550;DHT22;13444;50.562;7.262;2023-03-21T09:45:07;9.40;99.90
25550;DHT22;13444;50.562;7.262;2023-03-21T09:47:40;9.40;99.90
25550;DHT22;13444;50.562;7.262;2023-03-21T09:50:16;9.40;99.90
25550;DHT22;13444;50.562;7.262;2023-03-21T09:52:50;9.40;99.90
25550;DHT22;13444;50.562;7.262;2023-03-21T09:55:23;9.50;99.90
25550;DHT22;13444;50.562;7.262;2023-03-21T09:58:14;9.50;99.90
25550;DHT22;13444;50.562;7.262;2023-03-21T10:00:48;9.50;99.90
25550;DHT22;13444;50.562;7.262;2023-03-21T10:03:23;9.50;99.90
25550;DHT22;13444;50.562;7.262;2023-03-21T10:05:55;9.60;99.90
25550;DHT22;13444;50.562;7.262;2023-03-21T10:08:32;9.60;99.90
25550;DHT22;13444;50.562;7.262;2023-03-21T10:11:11;9.60;99.90
25550;DHT22;13444;50.562;7.262;2023-03-21T10:13:50;9.60;99.90
25550;DHT22;13444;50.562;7.262;2023-03-21T10:16:29;9.70;99.90
25550;DHT22;13444;50.562;7.262;2023-03-21T10:18:57;9.80;99.90
25550;DHT22;13444;50.562;7.262;2023-03-21T10:21:26;9.80;99.90
25550;DHT22;13444;50.562;7.262;2023-03-21T10:23:53;9.80;99.90
25550;DHT22;13444;50.562;7.262;2023-03-21T10:26:23;9.80;99.90
25550;DHT22;13444;50.562;7.262;2023-03-21T10:28:49;9.90;99.90
25550;DHT22;13444;50.562;7.262;2023-03-21T10:31:17;9.90;99.90
25550;DHT22;13444;50.562;7.262;2023-03-21T10:33:46;9.90;99.90
25550;DHT22;13444;50.562;7.262;2023-03-21T10:36:22;9.90;99.90
25550;DHT22;13444;50.562;7.262;2023-03-21T10:38:52;9.90;99.90
25550;DHT22;13444;50.562;7.262;2023-03-21T10:41:18;10.00;99.90
25550;DHT22;13444;50.562;7.262;2023-03-21T10:43:46;10.00;99.90
25550;DHT22;13444;50.562;7.262;2023-03-21T10:46:17;10.00;99.90
25550;DHT22;13444;50.562;7.262;2023-03-21T10:48:50;10.00;99.90
25550;DHT22;13444;50.562;7.262;2023-03-21T10:51:27;10.00;99.90
25550;DHT22;13444;50.562;7.262;2023-03-21T10:54:00;9.90;99.90
25550;DHT22;13444;50.562;7.262;2023-03-21T10:56:31;9.90;99.90
25550;DHT22;13444;50.562;7.262;2023-03-21T10:59:00;9.90;99.90
25550;DHT22;13444;50.562;7.262;2023-03-21T11:01:42;9.80;99.90
25550;DHT22;13444;50.562;7.262;2023-03-21T11:04:13;9.80;99.90
25550;DHT22;13444;50.562;7.262;2023-03-21T11:06:44;9.80;99.90
25550;DHT22;13444;50.562;7.262;2023-03-21T11:09:19;9.80;99.90
25550;DHT22;13444;50.562;7.262;2023-03-21T11:12:07;9.80;99.90
25550;DHT22;13444;50.562;7.262;2023-03-21T11:14:40;9.80;99.90
25550;DHT22;13444;50.562;7.262;2023-03-21T11:17:21;9.80;99.90
25550;DHT22;13444;50.562;7.262;2023-03-21T11:22:44;9.70;99.90
25550;DHT22;13444;50.562;7.262;2023-03-21T11:25:21;9.70;99.90
25550;DHT22;13444;50.562;7.262;2023-03-21T11:27:52;9.70;99.90
25550;DHT22;13444;50.562;7.262;2023-03-21T11:30:24;9.70;99.90
25550;DHT22;13444;50.562;7.262;2023-03-21T11:32:54;9.70;99.90
25550;DHT22;13444;50.562;7.262;2023-03-21T11:35:23;9.70;99.90
25550;DHT22;13444;50.562;7.262;2023-03-21T11:37:53;9.80;99.90
25550;DHT22;13444;50.562;7.262;2023-03-21T11:40:21;9.80;99.90
25550;DHT22;13444;50.562;7.262;2023-03-21T11:42:55;9.80;99.90
25550;DHT22;13444;50.562;7.262;2023-03-21T11:45:32;9.80;99.90
25550;DHT22;13444;50.562;7.262;2023-03-21T11:48:01;9.90;99.90
25550;DHT22;13444;50.562;7.262;2023-03-21T11:50:32;9.90;99.90
25550;DHT22;13444;50.562;7.262;2023-03-21T11:53:18;9.90;99.90
25550;DHT22;13444;50.562;7.262;2023-03-21T11:56:03;9.90;99.90
25550;DHT22;13444;50.562;7.262;2023-03-21T11:58:57;9.90;99.90
25550;DHT22;13444;50.562;7.262;2023-03-21T12:07:24;9.90;99.90
25550;DHT22;13444;50.562;7.262;2023-03-21T12:10:25;9.90;99.90
25550;DHT22;13444;50.562;7.262;2023-03-21T12:15:40;9.90;99.90
25550;DHT22;13444;50.562;7.262;2023-03-21T12:21:10;9.90;99.90
25550;DHT22;13444;50.562;7.262;2023-03-21T12:23:40;9.90;99.90
25550;DHT22;13444;50.562;7.262;2023-03-21T12:26:25;9.90;99.90
25550;DHT22;13444;50.562;7.262;2023-03-21T12:31:43;10.00;99.90
25550;DHT22;13444;50.562;7.262;2023-03-21T12:34:32;10.10;99.90
25550;DHT22;13444;50.562;7.262;2023-03-21T12:37:23;10.10;99.90
25550;DHT22;13444;50.562;7.262;2023-03-21T12:39:56;10.20;99.90
25550;DHT22;13444;50.562;7.262;2023-03-21T12:45:29;10.20;99.90
25550;DHT22;13444;50.562;7.262;2023-03-21T12:48:21;10.20;99.90
25550;DHT22;13444;50.562;7.262;2023-03-21T12:50:50;10.20;99.90
25550;DHT22;13444;50.562;7.262;2023-03-21T12:53:44;10.30;99.90
25550;DHT22;13444;50.562;7.262;2023-03-21T12:56:18;10.30;99.90
25550;DHT22;13444;50.562;7.262;2023-03-21T12:58:53;10.30;99.90
25550;DHT22;13444;50.562;7.262;2023-03-21T13:01:22;10.40;99.90
25550;DHT22;13444;50.562;7.262;2023-03-21T13:04:05;10.40;99.90
25550;DHT22;13444;50.562;7.262;2023-03-21T13:06:33;10.40;99.90
25550;DHT22;13444;50.562;7.262;2023-03-21T13:09:23;10.50;99.90
25550;DHT22;13444;50.562;7.262;2023-03-21T13:11:52;10.60;99.90
25550;DHT22;13444;50.562;7.262;2023-03-21T13:14:26;10.60;99.90
25550;DHT22;13444;50.562;7.262;2023-03-21T13:17:03;10.60;99.90
25550;DHT22;13444;50.562;7.262;2023-03-21T13:19:37;10.70;99.90
25550;DHT22;13444;50.562;7.262;2023-03-21T13:22:15;10.70;99.90
25550;DHT22;13444;50.562;7.262;2023-03-21T13:27:37;10.60;99.90
25550;DHT22;13444;50.562;7.262;2023-03-21T13:30:26;10.70;99.90
25550;DHT22;13444;50.562;7.262;2023-03-21T13:33:06;10.80;99.90
25550;DHT22;13444;50.562;7.262;2023-03-21T13:35:37;10.80;99.90
25550;DHT22;13444;50.562;7.262;2023-03-21T13:38:09;10.90;99.90
25550;DHT22;13444;50.562;7.262;2023-03-21T13:40:44;10.90;99.90
25550;DHT22;13444;50.562;7.262;2023-03-21T13:46:33;11.00;99.90
25550;DHT22;13444;50.562;7.262;2023-03-21T13:49:01;11.10;99.90
25550;DHT22;13444;50.562;7.262;2023-03-21T13:51:47;11.20;99.90
25550;DHT22;13444;50.562;7.262;2023-03-21T13:57:00;11.30;99.90
25550;DHT22;13444;50.562;7.262;2023-03-21T13:59:41;11.30;99.90
25550;DHT22;13444;50.562;7.262;2023-03-21T14:02:28;11.30;99.90
25550;DHT22;13444;50.562;7.262;2023-03-21T14:05:04;11.30;99.90
25550;DHT22;13444;50.562;7.262;2023-03-21T14:07:38;11.30;99.90
25550;DHT22;13444;50.562;7.262;2023-03-21T14:10:15;11.40;99.90
25550;DHT22;13444;50.562;7.262;2023-03-21T14:12:43;11.40;99.90
25550;DHT22;13444;50.562;7.262;2023-03-21T14:15:13;11.30;99.90
25550;DHT22;13444;50.562;7.262;2023-03-21T14:18:12;11.40;99.90
25550;DHT22;13444;50.562;7.262;2023-03-21T14:20:35;11.40;99.90
25550;DHT22;13444;50.562;7.262;2023-03-21T14:23:07;11.40;99.90
25550;DHT22;13444;50.562;7.262;2023-03-21T14:25:37;11.40;99.90
25550;DHT22;13444;50.562;7.262;2023-03-21T14:28:07;11.40;99.90
25550;DHT22;13444;50.562;7.262;2023-03-21T14:30:37;11.40;99.90
25550;DHT22;13444;50.562;7.262;2023-03-21T14:33:25;11.40;99.90
25550;DHT22;13444;50.562;7.262;2023-03-21T14:35:54;11.40;99.90
25550;DHT22;13444;50.562;7.262;2023-03-21T14:38:22;11.40;99.90
25550;DHT22;13444;50.562;7.262;2023-03-21T14:40:51;11.40;99.90
25550;DHT22;13444;50.562;7.262;2023-03-21T14:43:21;11.40;99.90
25550;DHT22;13444;50.562;7.262;2023-03-21T14:45:49;11.40;99.90
25550;DHT22;13444;50.562;7.262;2023-03-21T14:48:17;11.50;99.90
25550;DHT22;13444;50.562;7.262;2023-03-21T14:50:48;11.60;99.90
25550;DHT22;13444;50.562;7.262;2023-03-21T14:53:20;11.60;99.90
25550;DHT22;13444;50.562;7.262;2023-03-21T14:55:57;11.60;99.90
25550;DHT22;13444;50.562;7.262;2023-03-21T14:58:24;11.70;99.90
25550;DHT22;13444;50.562;7.262;2023-03-21T15:00:50;11.70;99.90
25550;DHT22;13444;50.562;7.262;2023-03-21T15:03:19;11.70;99.90
25550;DHT22;13444;50.562;7.262;2023-03-21T15:05:46;11.70;99.90
25550;DHT22;13444;50.562;7.262;2023-03-21T15:08:16;11.70;99.90
25550;DHT22;13444;50.562;7.262;2023-03-21T15:11:03;11.60;99.90
25550;DHT22;13444;50.562;7.262;2023-03-21T15:13:35;11.70;99.90
25550;DHT22;13444;50.562;7.262;2023-03-21T15:16:01;11.70;99.90
25550;DHT22;13444;50.562;7.262;2023-03-21T15:18:30;11.70;99.90
25550;DHT22;13444;50.562;7.262;2023-03-21T15:21:01;11.80;99.90
25550;DHT22;13444;50.562;7.262;2023-03-21T15:23:34;11.80;99.90
25550;DHT22;13444;50.562;7.262;2023-03-21T15:26:02;11.90;99.90
25550;DHT22;13444;50.562;7.262;2023-03-21T15:28:28;12.00;99.90
25550;DHT22;13444;50.562;7.262;2023-03-21T15:30:54;12.00;99.90
25550;DHT22;13444;50.562;7.262;2023-03-21T15:33:23;12.10;99.90
25550;DHT22;13444;50.562;7.262;2023-03-21T15:35:55;12.10;99.90
25550;DHT22;13444;50.562;7.262;2023-03-21T15:43:47;12.30;99.90
25550;DHT22;13444;50.562;7.262;2023-03-21T15:46:43;12.30;99.90
25550;DHT22;13444;50.562;7.262;2023-03-21T15:49:23;12.40;99.90
25550;DHT22;13444;50.562;7.262;2023-03-21T15:51:54;12.40;99.90
25550;DHT22;13444;50.562;7.262;2023-03-21T15:54:27;12.40;99.90
25550;DHT22;13444;50.562;7.262;2023-03-21T15:56:58;12.40;99.90
25550;DHT22;13444;50.562;7.262;2023-03-21T15:59:27;12.50;99.90
25550;DHT22;13444;50.562;7.262;2023-03-21T16:01:54;12.50;99.90
25550;DHT22;13444;50.562;7.262;2023-03-21T16:04:21;12.40;99.90
25550;DHT22;13444;50.562;7.262;2023-03-21T16:07:14;12.40;99.90
25550;DHT22;13444;50.562;7.262;2023-03-21T16:09:44;12.40;99.90
25550;DHT22;13444;50.562;7.262;2023-03-21T16:12:12;12.40;99.90
25550;DHT22;13444;50.562;7.262;2023-03-21T16:14:38;12.40;99.90
25550;DHT22;13444;50.562;7.262;2023-03-21T16:17:33;12.40;99.90
25550;DHT22;13444;50.562;7.262;2023-03-21T16:20:14;12.50;99.90
25550;DHT22;13444;50.562;7.262;2023-03-21T16:22:41;12.40;99.90
25550;DHT22;13444;50.562;7.262;2023-03-21T16:25:06;12.40;99.90
25550;DHT22;13444;50.562;7.262;2023-03-21T16:27:32;12.50;99.90
25550;DHT22;13444;50.562;7.262;2023-03-21T16:29:58;12.50;99.90
25550;DHT22;13444;50.562;7.262;2023-03-21T16:32:23;12.60;99.90
25550;DHT22;13444;50.562;7.262;2023-03-21T16:34:49;12.60;99.90
25550;DHT22;13444;50.562;7.262;2023-03-21T16:37:17;12.60;99.90
25550;DHT22;13444;50.562;7.262;2023-03-21T16:39:43;12.60;99.90
25550;DHT22;13444;50.562;7.262;2023-03-21T16:42:10;12.70;99.90
25550;DHT22;13444;50.562;7.262;2023-03-21T16:44:36;12.70;99.90
25550;DHT22;13444;50.562;7.262;2023-03-21T16:47:15;12.70;99.90
25550;DHT22;13444;50.562;7.262;2023-03-21T16:49:42;12.70;99.90
25550;DHT22;13444;50.562;7.262;2023-03-21T16:52:09;12.70;99.90
25550;DHT22;13444;50.562;7.262;2023-03-21T16:54:35;12.70;99.90
25550;DHT22;13444;50.562;7.262;2023-03-21T16:57:02;12.70;99.90